<?xml version="1.0" encoding="UTF-8" standalone="no" ?>
<gpx xmlns="http://www.topografix.com/GPX/1/1" xmlns:xsi="http://www.w3.org/2001/XMLSchema-instance" xsi:schemaLocation="http://www.topografix.com/GPX/1/1 http://www.topografix.com/GPX/1/1/gpx.xsd" version="1.1" creator="VisuGPX - https://www.visugpx.com">
  <metadata>
    <name>Crêtes du Lac de la Thuile</name>
    <desc><![CDATA[[img][/img]]]></desc>
  </metadata>
  <wpt lat="45.55006" lon="6.07554">
    <ele>940</ele>
    <name><![CDATA[Col de Marocaz]]></name>
  </wpt>
  <wpt lat="45.53157" lon="6.068">
    <ele>1048</ele>
    <name><![CDATA[Carrefour de la boucle]]></name>
  </wpt>
  <wpt lat="45.52182" lon="6.06085">
    <ele>1000</ele>
    <name><![CDATA[Col du Mont]]></name>
  </wpt>
  <wpt lat="45.52159" lon="6.06054">
    <ele>999</ele>
    <name><![CDATA[Embranchement, à gauche]]></name>
  </wpt>
  <wpt lat="45.51937" lon="6.05844">
    <ele>1039</ele>
    <name><![CDATA[Rocher de Manettaz]]></name>
  </wpt>
  <wpt lat="45.51887" lon="6.05563">
    <ele>1053</ele>
    <name><![CDATA[Col du Mollard]]></name>
  </wpt>
  <wpt lat="45.51713" lon="6.04923">
    <ele>1191</ele>
    <name><![CDATA[Roche du Guet]]></name>
  </wpt>
  <wpt lat="45.52764" lon="6.06234">
    <ele>891</ele>
    <name><![CDATA[Hameau du Lac à la Thuile]]></name>
  </wpt>
  <wpt lat="45.54987" lon="6.0756">
    <ele>940</ele>
    <name><![CDATA[Col de Marocaz]]></name>
  </wpt>
  <trk>
    <name><![CDATA[Crêtes du Lac de la Thuile]]></name>
    <trkseg>
      <trkpt lat="45.55006" lon="6.07554">
        <ele>940</ele>
        <time>2016-12-08T11:39:49+01:00</time>
      </trkpt>
      <trkpt lat="45.55005" lon="6.07555">
        <ele>940</ele>
        <time>2016-12-08T11:39:50+01:00</time>
      </trkpt>
      <trkpt lat="45.54985" lon="6.07569">
        <ele>942</ele>
        <time>2016-12-08T11:40:22+01:00</time>
      </trkpt>
      <trkpt lat="45.5497" lon="6.07554">
        <ele>939</ele>
        <time>2016-12-08T11:40:39+01:00</time>
      </trkpt>
      <trkpt lat="45.54954" lon="6.07537">
        <ele>936</ele>
        <time>2016-12-08T11:40:59+01:00</time>
      </trkpt>
      <trkpt lat="45.54936" lon="6.07527">
        <ele>934</ele>
        <time>2016-12-08T11:41:18+01:00</time>
      </trkpt>
      <trkpt lat="45.54909" lon="6.07519">
        <ele>934</ele>
        <time>2016-12-08T11:41:39+01:00</time>
      </trkpt>
      <trkpt lat="45.54897" lon="6.07513">
        <ele>934</ele>
        <time>2016-12-08T11:41:57+01:00</time>
      </trkpt>
      <trkpt lat="45.54876" lon="6.07505">
        <ele>935</ele>
        <time>2016-12-08T11:42:20+01:00</time>
      </trkpt>
      <trkpt lat="45.54875" lon="6.07505">
        <ele>935</ele>
        <time>2016-12-08T11:42:21+01:00</time>
      </trkpt>
      <trkpt lat="45.54853" lon="6.07499">
        <ele>935</ele>
        <time>2016-12-08T11:42:44+01:00</time>
      </trkpt>
      <trkpt lat="45.54832" lon="6.07498">
        <ele>936</ele>
        <time>2016-12-08T11:43:07+01:00</time>
      </trkpt>
      <trkpt lat="45.5482" lon="6.07494">
        <ele>936</ele>
        <time>2016-12-08T11:43:24+01:00</time>
      </trkpt>
      <trkpt lat="45.54804" lon="6.07494">
        <ele>938</ele>
        <time>2016-12-08T11:43:44+01:00</time>
      </trkpt>
      <trkpt lat="45.54788" lon="6.07494">
        <ele>940</ele>
        <time>2016-12-08T11:44:05+01:00</time>
      </trkpt>
      <trkpt lat="45.54772" lon="6.07496">
        <ele>943</ele>
        <time>2016-12-08T11:44:26+01:00</time>
      </trkpt>
      <trkpt lat="45.54755" lon="6.07486">
        <ele>941</ele>
        <time>2016-12-08T11:44:42+01:00</time>
      </trkpt>
      <trkpt lat="45.54737" lon="6.07485">
        <ele>946</ele>
        <time>2016-12-08T11:45:02+01:00</time>
      </trkpt>
      <trkpt lat="45.54719" lon="6.07469">
        <ele>947</ele>
        <time>2016-12-08T11:45:24+01:00</time>
      </trkpt>
      <trkpt lat="45.54711" lon="6.07462">
        <ele>948</ele>
        <time>2016-12-08T11:45:37+01:00</time>
      </trkpt>
      <trkpt lat="45.54698" lon="6.07451">
        <ele>949</ele>
        <time>2016-12-08T11:46:00+01:00</time>
      </trkpt>
      <trkpt lat="45.54683" lon="6.0744">
        <ele>951</ele>
        <time>2016-12-08T11:46:21+01:00</time>
      </trkpt>
      <trkpt lat="45.54669" lon="6.07428">
        <ele>952</ele>
        <time>2016-12-08T11:46:44+01:00</time>
      </trkpt>
      <trkpt lat="45.54653" lon="6.07413">
        <ele>955</ele>
        <time>2016-12-08T11:47:04+01:00</time>
      </trkpt>
      <trkpt lat="45.54639" lon="6.07397">
        <ele>956</ele>
        <time>2016-12-08T11:47:26+01:00</time>
      </trkpt>
      <trkpt lat="45.54628" lon="6.07388">
        <ele>959</ele>
        <time>2016-12-08T11:47:44+01:00</time>
      </trkpt>
      <trkpt lat="45.54615" lon="6.07376">
        <ele>961</ele>
        <time>2016-12-08T11:48:03+01:00</time>
      </trkpt>
      <trkpt lat="45.54595" lon="6.07363">
        <ele>968</ele>
        <time>2016-12-08T11:48:29+01:00</time>
      </trkpt>
      <trkpt lat="45.54577" lon="6.07343">
        <ele>971</ele>
        <time>2016-12-08T11:48:52+01:00</time>
      </trkpt>
      <trkpt lat="45.54557" lon="6.07327">
        <ele>973</ele>
        <time>2016-12-08T11:49:14+01:00</time>
      </trkpt>
      <trkpt lat="45.54544" lon="6.07319">
        <ele>975</ele>
        <time>2016-12-08T11:49:33+01:00</time>
      </trkpt>
      <trkpt lat="45.54527" lon="6.07308">
        <ele>978</ele>
        <time>2016-12-08T11:49:54+01:00</time>
      </trkpt>
      <trkpt lat="45.54514" lon="6.073">
        <ele>981</ele>
        <time>2016-12-08T11:50:12+01:00</time>
      </trkpt>
      <trkpt lat="45.54496" lon="6.07283">
        <ele>983</ele>
        <time>2016-12-08T11:50:36+01:00</time>
      </trkpt>
      <trkpt lat="45.54476" lon="6.07268">
        <ele>983</ele>
        <time>2016-12-08T11:51:01+01:00</time>
      </trkpt>
      <trkpt lat="45.54455" lon="6.07254">
        <ele>985</ele>
        <time>2016-12-08T11:51:23+01:00</time>
      </trkpt>
      <trkpt lat="45.54437" lon="6.07236">
        <ele>985</ele>
        <time>2016-12-08T11:51:45+01:00</time>
      </trkpt>
      <trkpt lat="45.54418" lon="6.07217">
        <ele>984</ele>
        <time>2016-12-08T11:52:07+01:00</time>
      </trkpt>
      <trkpt lat="45.54396" lon="6.07199">
        <ele>981</ele>
        <time>2016-12-08T11:52:32+01:00</time>
      </trkpt>
      <trkpt lat="45.5438" lon="6.07188">
        <ele>981</ele>
        <time>2016-12-08T11:52:53+01:00</time>
      </trkpt>
      <trkpt lat="45.54364" lon="6.0718">
        <ele>982</ele>
        <time>2016-12-08T11:53:10+01:00</time>
      </trkpt>
      <trkpt lat="45.5435" lon="6.07175">
        <ele>985</ele>
        <time>2016-12-08T11:53:25+01:00</time>
      </trkpt>
      <trkpt lat="45.54334" lon="6.07176">
        <ele>989</ele>
        <time>2016-12-08T11:54:53+01:00</time>
      </trkpt>
      <trkpt lat="45.54325" lon="6.07176">
        <ele>989</ele>
        <time>2016-12-08T11:55:14+01:00</time>
      </trkpt>
      <trkpt lat="45.543" lon="6.07174">
        <ele>989</ele>
        <time>2016-12-08T11:55:35+01:00</time>
      </trkpt>
      <trkpt lat="45.54274" lon="6.07167">
        <ele>988</ele>
        <time>2016-12-08T11:55:58+01:00</time>
      </trkpt>
      <trkpt lat="45.54256" lon="6.07166">
        <ele>989</ele>
        <time>2016-12-08T11:56:17+01:00</time>
      </trkpt>
      <trkpt lat="45.54234" lon="6.07169">
        <ele>989</ele>
        <time>2016-12-08T11:56:38+01:00</time>
      </trkpt>
      <trkpt lat="45.5422" lon="6.07162">
        <ele>988</ele>
        <time>2016-12-08T11:56:53+01:00</time>
      </trkpt>
      <trkpt lat="45.54204" lon="6.07141">
        <ele>983</ele>
        <time>2016-12-08T11:57:15+01:00</time>
      </trkpt>
      <trkpt lat="45.54195" lon="6.07131">
        <ele>981</ele>
        <time>2016-12-08T11:57:24+01:00</time>
      </trkpt>
      <trkpt lat="45.54175" lon="6.07103">
        <ele>977</ele>
        <time>2016-12-08T11:57:47+01:00</time>
      </trkpt>
      <trkpt lat="45.54157" lon="6.07076">
        <ele>974</ele>
        <time>2016-12-08T11:58:10+01:00</time>
      </trkpt>
      <trkpt lat="45.54139" lon="6.07048">
        <ele>969</ele>
        <time>2016-12-08T11:58:32+01:00</time>
      </trkpt>
      <trkpt lat="45.54122" lon="6.07024">
        <ele>966</ele>
        <time>2016-12-08T11:58:54+01:00</time>
      </trkpt>
      <trkpt lat="45.54108" lon="6.07005">
        <ele>964</ele>
        <time>2016-12-08T11:59:13+01:00</time>
      </trkpt>
      <trkpt lat="45.5409" lon="6.06974">
        <ele>961</ele>
        <time>2016-12-08T11:59:37+01:00</time>
      </trkpt>
      <trkpt lat="45.54076" lon="6.06949">
        <ele>958</ele>
        <time>2016-12-08T11:59:57+01:00</time>
      </trkpt>
      <trkpt lat="45.54061" lon="6.06964">
        <ele>965</ele>
        <time>2016-12-08T12:00:20+01:00</time>
      </trkpt>
      <trkpt lat="45.54059" lon="6.06997">
        <ele>973</ele>
        <time>2016-12-08T12:00:41+01:00</time>
      </trkpt>
      <trkpt lat="45.54057" lon="6.07029">
        <ele>980</ele>
        <time>2016-12-08T12:01:02+01:00</time>
      </trkpt>
      <trkpt lat="45.54054" lon="6.07067">
        <ele>986</ele>
        <time>2016-12-08T12:01:24+01:00</time>
      </trkpt>
      <trkpt lat="45.54045" lon="6.07095">
        <ele>990</ele>
        <time>2016-12-08T12:01:45+01:00</time>
      </trkpt>
      <trkpt lat="45.54044" lon="6.07097">
        <ele>990</ele>
        <time>2016-12-08T12:01:47+01:00</time>
      </trkpt>
      <trkpt lat="45.54025" lon="6.07113">
        <ele>990</ele>
        <time>2016-12-08T12:02:11+01:00</time>
      </trkpt>
      <trkpt lat="45.5401" lon="6.07124">
        <ele>989</ele>
        <time>2016-12-08T12:02:30+01:00</time>
      </trkpt>
      <trkpt lat="45.53994" lon="6.07135">
        <ele>988</ele>
        <time>2016-12-08T12:02:51+01:00</time>
      </trkpt>
      <trkpt lat="45.5398" lon="6.07143">
        <ele>988</ele>
        <time>2016-12-08T12:03:10+01:00</time>
      </trkpt>
      <trkpt lat="45.53965" lon="6.07139">
        <ele>988</ele>
        <time>2016-12-08T12:03:31+01:00</time>
      </trkpt>
      <trkpt lat="45.53948" lon="6.07115">
        <ele>992</ele>
        <time>2016-12-08T12:03:56+01:00</time>
      </trkpt>
      <trkpt lat="45.53945" lon="6.07111">
        <ele>993</ele>
        <time>2016-12-08T12:03:59+01:00</time>
      </trkpt>
      <trkpt lat="45.53935" lon="6.07089">
        <ele>997</ele>
        <time>2016-12-08T12:04:16+01:00</time>
      </trkpt>
      <trkpt lat="45.53924" lon="6.07064">
        <ele>999</ele>
        <time>2016-12-08T12:04:39+01:00</time>
      </trkpt>
      <trkpt lat="45.53919" lon="6.07058">
        <ele>1000</ele>
        <time>2016-12-08T12:04:45+01:00</time>
      </trkpt>
      <trkpt lat="45.53901" lon="6.07051">
        <ele>999</ele>
        <time>2016-12-08T12:05:08+01:00</time>
      </trkpt>
      <trkpt lat="45.5388" lon="6.07045">
        <ele>998</ele>
        <time>2016-12-08T12:05:30+01:00</time>
      </trkpt>
      <trkpt lat="45.53861" lon="6.07022">
        <ele>999</ele>
        <time>2016-12-08T12:05:53+01:00</time>
      </trkpt>
      <trkpt lat="45.53852" lon="6.07002">
        <ele>1000</ele>
        <time>2016-12-08T12:06:13+01:00</time>
      </trkpt>
      <trkpt lat="45.5384" lon="6.06981">
        <ele>1000</ele>
        <time>2016-12-08T12:06:35+01:00</time>
      </trkpt>
      <trkpt lat="45.53825" lon="6.06958">
        <ele>1000</ele>
        <time>2016-12-08T12:06:59+01:00</time>
      </trkpt>
      <trkpt lat="45.53809" lon="6.06928">
        <ele>1002</ele>
        <time>2016-12-08T12:07:21+01:00</time>
      </trkpt>
      <trkpt lat="45.53803" lon="6.06905">
        <ele>1003</ele>
        <time>2016-12-08T12:07:39+01:00</time>
      </trkpt>
      <trkpt lat="45.53789" lon="6.06877">
        <ele>1004</ele>
        <time>2016-12-08T12:08:01+01:00</time>
      </trkpt>
      <trkpt lat="45.53779" lon="6.06868">
        <ele>1006</ele>
        <time>2016-12-08T12:08:11+01:00</time>
      </trkpt>
      <trkpt lat="45.5376" lon="6.06863">
        <ele>1008</ele>
        <time>2016-12-08T12:08:27+01:00</time>
      </trkpt>
      <trkpt lat="45.53745" lon="6.06863">
        <ele>1010</ele>
        <time>2016-12-08T12:08:44+01:00</time>
      </trkpt>
      <trkpt lat="45.53724" lon="6.06855">
        <ele>1014</ele>
        <time>2016-12-08T12:09:05+01:00</time>
      </trkpt>
      <trkpt lat="45.53707" lon="6.06861">
        <ele>1016</ele>
        <time>2016-12-08T12:09:13+01:00</time>
      </trkpt>
      <trkpt lat="45.53693" lon="6.06869">
        <ele>1017</ele>
        <time>2016-12-08T12:09:34+01:00</time>
      </trkpt>
      <trkpt lat="45.5367" lon="6.06877">
        <ele>1019</ele>
        <time>2016-12-08T12:09:54+01:00</time>
      </trkpt>
      <trkpt lat="45.53644" lon="6.06876">
        <ele>1023</ele>
        <time>2016-12-08T12:10:14+01:00</time>
      </trkpt>
      <trkpt lat="45.53627" lon="6.06878">
        <ele>1024</ele>
        <time>2016-12-08T12:10:35+01:00</time>
      </trkpt>
      <trkpt lat="45.53597" lon="6.06872">
        <ele>1030</ele>
        <time>2016-12-08T12:10:57+01:00</time>
      </trkpt>
      <trkpt lat="45.53577" lon="6.06872">
        <ele>1032</ele>
        <time>2016-12-08T12:11:20+01:00</time>
      </trkpt>
      <trkpt lat="45.53554" lon="6.06868">
        <ele>1036</ele>
        <time>2016-12-08T12:11:42+01:00</time>
      </trkpt>
      <trkpt lat="45.53536" lon="6.0687">
        <ele>1037</ele>
        <time>2016-12-08T12:12:02+01:00</time>
      </trkpt>
      <trkpt lat="45.53512" lon="6.06866">
        <ele>1041</ele>
        <time>2016-12-08T12:12:23+01:00</time>
      </trkpt>
      <trkpt lat="45.53492" lon="6.06867">
        <ele>1043</ele>
        <time>2020-01-28T17:11:50+01:00</time>
      </trkpt>
      <trkpt lat="45.53469" lon="6.0687">
        <ele>1043</ele>
        <time>2020-01-28T17:11:55+01:00</time>
      </trkpt>
      <trkpt lat="45.53454" lon="6.06864">
        <ele>1046</ele>
        <time>2016-12-08T12:13:46+01:00</time>
      </trkpt>
      <trkpt lat="45.53436" lon="6.06862">
        <ele>1048</ele>
        <time>2016-12-08T12:14:06+01:00</time>
      </trkpt>
      <trkpt lat="45.53418" lon="6.06855">
        <ele>1052</ele>
        <time>2016-12-08T12:14:25+01:00</time>
      </trkpt>
      <trkpt lat="45.53388" lon="6.06855">
        <ele>1055</ele>
        <time>2016-12-08T12:14:46+01:00</time>
      </trkpt>
      <trkpt lat="45.53374" lon="6.06849">
        <ele>1059</ele>
        <time>2016-12-08T12:15:01+01:00</time>
      </trkpt>
      <trkpt lat="45.53349" lon="6.06851">
        <ele>1061</ele>
        <time>2016-12-08T12:15:17+01:00</time>
      </trkpt>
      <trkpt lat="45.53334" lon="6.06858">
        <ele>1059</ele>
        <time>2016-12-08T12:15:36+01:00</time>
      </trkpt>
      <trkpt lat="45.53315" lon="6.06853">
        <ele>1061</ele>
        <time>2016-12-08T12:15:56+01:00</time>
      </trkpt>
      <trkpt lat="45.53298" lon="6.06856">
        <ele>1060</ele>
        <time>2016-12-08T12:16:09+01:00</time>
      </trkpt>
      <trkpt lat="45.53286" lon="6.06847">
        <ele>1063</ele>
        <time>2016-12-08T12:16:27+01:00</time>
      </trkpt>
      <trkpt lat="45.53272" lon="6.06835">
        <ele>1066</ele>
        <time>2016-12-08T12:16:48+01:00</time>
      </trkpt>
      <trkpt lat="45.53241" lon="6.06827">
        <ele>1064</ele>
        <time>2016-12-08T12:17:31+01:00</time>
      </trkpt>
      <trkpt lat="45.53226" lon="6.06816">
        <ele>1062</ele>
        <time>2016-12-08T12:18:14+01:00</time>
      </trkpt>
      <trkpt lat="45.53199" lon="6.068">
        <ele>1058</ele>
        <time>2016-12-08T12:18:37+01:00</time>
      </trkpt>
      <trkpt lat="45.53182" lon="6.06788">
        <ele>1054</ele>
        <time>2016-12-08T12:18:58+01:00</time>
      </trkpt>
      <trkpt lat="45.53168" lon="6.06796">
        <ele>1051</ele>
        <time>2016-12-08T12:19:18+01:00</time>
      </trkpt>
      <trkpt lat="45.53157" lon="6.068">
        <ele>1048</ele>
        <time>2016-12-08T12:19:36+01:00</time>
      </trkpt>
      <trkpt lat="45.53145" lon="6.06803">
        <ele>1046</ele>
        <time>2016-12-08T12:19:41+01:00</time>
      </trkpt>
      <trkpt lat="45.5314" lon="6.06827">
        <ele>1045</ele>
        <time>2016-12-08T12:19:58+01:00</time>
      </trkpt>
      <trkpt lat="45.53131" lon="6.0685">
        <ele>1043</ele>
        <time>2016-12-08T12:20:17+01:00</time>
      </trkpt>
      <trkpt lat="45.53124" lon="6.06869">
        <ele>1042</ele>
        <time>2016-12-08T12:20:35+01:00</time>
      </trkpt>
      <trkpt lat="45.53114" lon="6.0689">
        <ele>1041</ele>
        <time>2016-12-08T12:20:52+01:00</time>
      </trkpt>
      <trkpt lat="45.53108" lon="6.06908">
        <ele>1041</ele>
        <time>2016-12-08T12:21:07+01:00</time>
      </trkpt>
      <trkpt lat="45.53098" lon="6.06917">
        <ele>1041</ele>
        <time>2016-12-08T12:21:23+01:00</time>
      </trkpt>
      <trkpt lat="45.53081" lon="6.06923">
        <ele>1040</ele>
        <time>2016-12-08T12:21:43+01:00</time>
      </trkpt>
      <trkpt lat="45.53066" lon="6.06928">
        <ele>1040</ele>
        <time>2016-12-08T12:22:04+01:00</time>
      </trkpt>
      <trkpt lat="45.53051" lon="6.0693">
        <ele>1039</ele>
        <time>2016-12-08T12:22:22+01:00</time>
      </trkpt>
      <trkpt lat="45.53028" lon="6.06933">
        <ele>1039</ele>
        <time>2016-12-08T12:22:44+01:00</time>
      </trkpt>
      <trkpt lat="45.53008" lon="6.06947">
        <ele>1038</ele>
        <time>2016-12-08T12:23:17+01:00</time>
      </trkpt>
      <trkpt lat="45.52998" lon="6.0697">
        <ele>1036</ele>
        <time>2016-12-08T12:23:42+01:00</time>
      </trkpt>
      <trkpt lat="45.52999" lon="6.07002">
        <ele>1035</ele>
        <time>2016-12-08T12:24:16+01:00</time>
      </trkpt>
      <trkpt lat="45.52998" lon="6.07028">
        <ele>1033</ele>
        <time>2016-12-08T12:24:33+01:00</time>
      </trkpt>
      <trkpt lat="45.52996" lon="6.0705">
        <ele>1031</ele>
        <time>2016-12-08T12:24:51+01:00</time>
      </trkpt>
      <trkpt lat="45.52998" lon="6.07077">
        <ele>1029</ele>
        <time>2016-12-08T12:25:11+01:00</time>
      </trkpt>
      <trkpt lat="45.52995" lon="6.0711">
        <ele>1027</ele>
        <time>2016-12-08T12:25:30+01:00</time>
      </trkpt>
      <trkpt lat="45.52994" lon="6.07134">
        <ele>1025</ele>
        <time>2016-12-08T12:25:48+01:00</time>
      </trkpt>
      <trkpt lat="45.52986" lon="6.07162">
        <ele>1023</ele>
        <time>2016-12-08T12:26:09+01:00</time>
      </trkpt>
      <trkpt lat="45.5297" lon="6.07179">
        <ele>1020</ele>
        <time>2016-12-08T12:26:31+01:00</time>
      </trkpt>
      <trkpt lat="45.52952" lon="6.07181">
        <ele>1019</ele>
        <time>2016-12-08T12:26:50+01:00</time>
      </trkpt>
      <trkpt lat="45.52936" lon="6.07194">
        <ele>1017</ele>
        <time>2016-12-08T12:27:19+01:00</time>
      </trkpt>
      <trkpt lat="45.52927" lon="6.0721">
        <ele>1014</ele>
        <time>2016-12-08T12:27:40+01:00</time>
      </trkpt>
      <trkpt lat="45.52914" lon="6.07235">
        <ele>1010</ele>
        <time>2016-12-08T12:28:23+01:00</time>
      </trkpt>
      <trkpt lat="45.52899" lon="6.07246">
        <ele>1009</ele>
        <time>2016-12-08T12:28:55+01:00</time>
      </trkpt>
      <trkpt lat="45.52884" lon="6.07226">
        <ele>1014</ele>
        <time>2016-12-08T12:29:22+01:00</time>
      </trkpt>
      <trkpt lat="45.52879" lon="6.07205">
        <ele>1018</ele>
        <time>2016-12-08T12:29:43+01:00</time>
      </trkpt>
      <trkpt lat="45.52867" lon="6.07181">
        <ele>1025</ele>
        <time>2016-12-08T12:30:21+01:00</time>
      </trkpt>
      <trkpt lat="45.52862" lon="6.0717">
        <ele>1029</ele>
        <time>2016-12-08T12:30:40+01:00</time>
      </trkpt>
      <trkpt lat="45.52854" lon="6.07152">
        <ele>1033</ele>
        <time>2016-12-08T12:31:01+01:00</time>
      </trkpt>
      <trkpt lat="45.52855" lon="6.07134">
        <ele>1035</ele>
        <time>2016-12-08T12:31:22+01:00</time>
      </trkpt>
      <trkpt lat="45.5285" lon="6.07118">
        <ele>1039</ele>
        <time>2016-12-08T12:31:43+01:00</time>
      </trkpt>
      <trkpt lat="45.52839" lon="6.07095">
        <ele>1045</ele>
        <time>2016-12-08T12:32:21+01:00</time>
      </trkpt>
      <trkpt lat="45.52835" lon="6.07076">
        <ele>1048</ele>
        <time>2016-12-08T12:32:46+01:00</time>
      </trkpt>
      <trkpt lat="45.52829" lon="6.07048">
        <ele>1053</ele>
        <time>2016-12-08T12:33:22+01:00</time>
      </trkpt>
      <trkpt lat="45.52815" lon="6.07027">
        <ele>1058</ele>
        <time>2016-12-08T12:34:02+01:00</time>
      </trkpt>
      <trkpt lat="45.52798" lon="6.07015">
        <ele>1063</ele>
        <time>2016-12-08T12:34:43+01:00</time>
      </trkpt>
      <trkpt lat="45.52783" lon="6.07015">
        <ele>1066</ele>
        <time>2016-12-08T12:38:48+01:00</time>
      </trkpt>
      <trkpt lat="45.52763" lon="6.07018">
        <ele>1070</ele>
        <time>2016-12-08T12:39:28+01:00</time>
      </trkpt>
      <trkpt lat="45.52752" lon="6.07021">
        <ele>1071</ele>
        <time>2016-12-08T12:39:58+01:00</time>
      </trkpt>
      <trkpt lat="45.5274" lon="6.07006">
        <ele>1076</ele>
        <time>2016-12-08T12:40:22+01:00</time>
      </trkpt>
      <trkpt lat="45.52723" lon="6.06995">
        <ele>1080</ele>
        <time>2016-12-08T12:41:04+01:00</time>
      </trkpt>
      <trkpt lat="45.52705" lon="6.0699">
        <ele>1082</ele>
        <time>2016-12-08T12:41:42+01:00</time>
      </trkpt>
      <trkpt lat="45.52689" lon="6.06983">
        <ele>1085</ele>
        <time>2016-12-08T12:43:00+01:00</time>
      </trkpt>
      <trkpt lat="45.52671" lon="6.06986">
        <ele>1087</ele>
        <time>2016-12-08T12:44:13+01:00</time>
      </trkpt>
      <trkpt lat="45.52657" lon="6.06964">
        <ele>1086</ele>
        <time>2016-12-08T12:45:02+01:00</time>
      </trkpt>
      <trkpt lat="45.5264" lon="6.06944">
        <ele>1081</ele>
        <time>2016-12-08T12:45:41+01:00</time>
      </trkpt>
      <trkpt lat="45.52632" lon="6.06934">
        <ele>1080</ele>
        <time>2016-12-08T12:46:00+01:00</time>
      </trkpt>
      <trkpt lat="45.52623" lon="6.06916">
        <ele>1080</ele>
        <time>2016-12-08T12:46:26+01:00</time>
      </trkpt>
      <trkpt lat="45.52618" lon="6.06892">
        <ele>1079</ele>
        <time>2016-12-08T12:46:49+01:00</time>
      </trkpt>
      <trkpt lat="45.52614" lon="6.0687">
        <ele>1079</ele>
        <time>2016-12-08T12:47:08+01:00</time>
      </trkpt>
      <trkpt lat="45.52612" lon="6.06855">
        <ele>1079</ele>
        <time>2016-12-08T12:47:28+01:00</time>
      </trkpt>
      <trkpt lat="45.52606" lon="6.06826">
        <ele>1078</ele>
        <time>2016-12-08T12:47:49+01:00</time>
      </trkpt>
      <trkpt lat="45.52599" lon="6.06801">
        <ele>1072</ele>
        <time>2016-12-08T12:48:09+01:00</time>
      </trkpt>
      <trkpt lat="45.52593" lon="6.06789">
        <ele>1069</ele>
        <time>2016-12-08T12:48:26+01:00</time>
      </trkpt>
      <trkpt lat="45.52586" lon="6.06772">
        <ele>1066</ele>
        <time>2016-12-08T12:48:46+01:00</time>
      </trkpt>
      <trkpt lat="45.52585" lon="6.06741">
        <ele>1058</ele>
        <time>2016-12-08T12:49:24+01:00</time>
      </trkpt>
      <trkpt lat="45.52579" lon="6.06711">
        <ele>1046</ele>
        <time>2016-12-08T12:49:52+01:00</time>
      </trkpt>
      <trkpt lat="45.52577" lon="6.06692">
        <ele>1038</ele>
        <time>2016-12-08T12:50:10+01:00</time>
      </trkpt>
      <trkpt lat="45.5256" lon="6.06686">
        <ele>1036</ele>
        <time>2016-12-08T12:51:04+01:00</time>
      </trkpt>
      <trkpt lat="45.52546" lon="6.06694">
        <ele>1039</ele>
        <time>2016-12-08T12:51:17+01:00</time>
      </trkpt>
      <trkpt lat="45.52527" lon="6.06705">
        <ele>1041</ele>
        <time>2016-12-08T12:51:39+01:00</time>
      </trkpt>
      <trkpt lat="45.52512" lon="6.06721">
        <ele>1042</ele>
        <time>2016-12-08T12:51:59+01:00</time>
      </trkpt>
      <trkpt lat="45.525" lon="6.06726">
        <ele>1041</ele>
        <time>2016-12-08T12:52:37+01:00</time>
      </trkpt>
      <trkpt lat="45.52479" lon="6.06728">
        <ele>1040</ele>
        <time>2016-12-08T12:52:59+01:00</time>
      </trkpt>
      <trkpt lat="45.52465" lon="6.06726">
        <ele>1040</ele>
        <time>2016-12-08T12:53:11+01:00</time>
      </trkpt>
      <trkpt lat="45.52447" lon="6.06719">
        <ele>1040</ele>
        <time>2016-12-08T12:53:34+01:00</time>
      </trkpt>
      <trkpt lat="45.52442" lon="6.06704">
        <ele>1039</ele>
        <time>2016-12-08T12:53:52+01:00</time>
      </trkpt>
      <trkpt lat="45.52437" lon="6.06682">
        <ele>1039</ele>
        <time>2016-12-08T12:54:12+01:00</time>
      </trkpt>
      <trkpt lat="45.52427" lon="6.06665">
        <ele>1040</ele>
        <time>2016-12-08T12:54:31+01:00</time>
      </trkpt>
      <trkpt lat="45.52411" lon="6.06645">
        <ele>1039</ele>
        <time>2016-12-08T12:55:04+01:00</time>
      </trkpt>
      <trkpt lat="45.52408" lon="6.06626">
        <ele>1039</ele>
        <time>2016-12-08T12:55:25+01:00</time>
      </trkpt>
      <trkpt lat="45.52406" lon="6.06608">
        <ele>1039</ele>
        <time>2016-12-08T12:55:46+01:00</time>
      </trkpt>
      <trkpt lat="45.52393" lon="6.06588">
        <ele>1038</ele>
        <time>2016-12-08T12:56:07+01:00</time>
      </trkpt>
      <trkpt lat="45.52379" lon="6.06587">
        <ele>1038</ele>
        <time>2016-12-08T12:56:22+01:00</time>
      </trkpt>
      <trkpt lat="45.52364" lon="6.06589">
        <ele>1037</ele>
        <time>2016-12-08T12:56:40+01:00</time>
      </trkpt>
      <trkpt lat="45.52351" lon="6.06569">
        <ele>1036</ele>
        <time>2016-12-08T12:57:02+01:00</time>
      </trkpt>
      <trkpt lat="45.52339" lon="6.06547">
        <ele>1036</ele>
        <time>2016-12-08T12:57:40+01:00</time>
      </trkpt>
      <trkpt lat="45.52337" lon="6.06522">
        <ele>1035</ele>
        <time>2016-12-08T12:58:01+01:00</time>
      </trkpt>
      <trkpt lat="45.52336" lon="6.06493">
        <ele>1034</ele>
        <time>2016-12-08T12:58:22+01:00</time>
      </trkpt>
      <trkpt lat="45.5233" lon="6.06474">
        <ele>1033</ele>
        <time>2016-12-08T12:58:37+01:00</time>
      </trkpt>
      <trkpt lat="45.52318" lon="6.06455">
        <ele>1032</ele>
        <time>2016-12-08T12:58:58+01:00</time>
      </trkpt>
      <trkpt lat="45.52306" lon="6.06433">
        <ele>1031</ele>
        <time>2016-12-08T12:59:16+01:00</time>
      </trkpt>
      <trkpt lat="45.52304" lon="6.06428">
        <ele>1031</ele>
        <time>2016-12-08T12:59:18+01:00</time>
      </trkpt>
      <trkpt lat="45.52285" lon="6.06412">
        <ele>1032</ele>
        <time>2016-12-08T12:59:40+01:00</time>
      </trkpt>
      <trkpt lat="45.5227" lon="6.06401">
        <ele>1032</ele>
        <time>2016-12-08T13:00:00+01:00</time>
      </trkpt>
      <trkpt lat="45.52262" lon="6.06385">
        <ele>1031</ele>
        <time>2016-12-08T13:00:17+01:00</time>
      </trkpt>
      <trkpt lat="45.52255" lon="6.06367">
        <ele>1030</ele>
        <time>2016-12-08T13:00:34+01:00</time>
      </trkpt>
      <trkpt lat="45.52245" lon="6.06354">
        <ele>1029</ele>
        <time>2016-12-08T13:01:00+01:00</time>
      </trkpt>
      <trkpt lat="45.52242" lon="6.0634">
        <ele>1028</ele>
        <time>2016-12-08T13:01:18+01:00</time>
      </trkpt>
      <trkpt lat="45.5224" lon="6.06317">
        <ele>1026</ele>
        <time>2016-12-08T13:01:51+01:00</time>
      </trkpt>
      <trkpt lat="45.52233" lon="6.06298">
        <ele>1024</ele>
        <time>2016-12-08T13:02:08+01:00</time>
      </trkpt>
      <trkpt lat="45.52221" lon="6.06277">
        <ele>1022</ele>
        <time>2016-12-08T13:02:37+01:00</time>
      </trkpt>
      <trkpt lat="45.52204" lon="6.06267">
        <ele>1022</ele>
        <time>2016-12-08T13:03:11+01:00</time>
      </trkpt>
      <trkpt lat="45.52192" lon="6.06249">
        <ele>1021</ele>
        <time>2016-12-08T13:03:31+01:00</time>
      </trkpt>
      <trkpt lat="45.52185" lon="6.06227">
        <ele>1019</ele>
        <time>2016-12-08T13:03:52+01:00</time>
      </trkpt>
      <trkpt lat="45.52183" lon="6.06208">
        <ele>1017</ele>
        <time>2016-12-08T13:04:10+01:00</time>
      </trkpt>
      <trkpt lat="45.52176" lon="6.06183">
        <ele>1016</ele>
        <time>2016-12-08T13:04:32+01:00</time>
      </trkpt>
      <trkpt lat="45.52178" lon="6.06155">
        <ele>1012</ele>
        <time>2016-12-08T13:04:53+01:00</time>
      </trkpt>
      <trkpt lat="45.52186" lon="6.06141">
        <ele>1009</ele>
        <time>2016-12-08T13:05:13+01:00</time>
      </trkpt>
      <trkpt lat="45.52191" lon="6.06121">
        <ele>1005</ele>
        <time>2016-12-08T13:05:36+01:00</time>
      </trkpt>
      <trkpt lat="45.52187" lon="6.06099">
        <ele>1002</ele>
        <time>2016-12-08T13:05:54+01:00</time>
      </trkpt>
      <trkpt lat="45.52182" lon="6.06085">
        <ele>1000</ele>
        <time>2016-12-08T13:06:12+01:00</time>
      </trkpt>
      <trkpt lat="45.52164" lon="6.06088">
        <ele>1003</ele>
        <time>2016-12-08T13:06:26+01:00</time>
      </trkpt>
      <trkpt lat="45.5217" lon="6.06058">
        <ele>998</ele>
        <time>2016-12-08T13:06:45+01:00</time>
      </trkpt>
      <trkpt lat="45.52159" lon="6.06054">
        <ele>999</ele>
        <time>2016-12-08T13:07:00+01:00</time>
      </trkpt>
      <trkpt lat="45.52139" lon="6.06053">
        <ele>1003</ele>
        <time>2016-12-08T13:07:30+01:00</time>
      </trkpt>
      <trkpt lat="45.52136" lon="6.06067">
        <ele>1005</ele>
        <time>2016-12-08T13:07:46+01:00</time>
      </trkpt>
      <trkpt lat="45.52125" lon="6.06084">
        <ele>1008</ele>
        <time>2016-12-08T13:08:08+01:00</time>
      </trkpt>
      <trkpt lat="45.52107" lon="6.061">
        <ele>1011</ele>
        <time>2016-12-08T13:08:28+01:00</time>
      </trkpt>
      <trkpt lat="45.52089" lon="6.06111">
        <ele>1013</ele>
        <time>2016-12-08T13:08:50+01:00</time>
      </trkpt>
      <trkpt lat="45.5207" lon="6.0611">
        <ele>1014</ele>
        <time>2016-12-08T13:09:12+01:00</time>
      </trkpt>
      <trkpt lat="45.52057" lon="6.061">
        <ele>1016</ele>
        <time>2016-12-08T13:09:36+01:00</time>
      </trkpt>
      <trkpt lat="45.5204" lon="6.06086">
        <ele>1019</ele>
        <time>2016-12-08T13:09:56+01:00</time>
      </trkpt>
      <trkpt lat="45.52024" lon="6.06072">
        <ele>1022</ele>
        <time>2016-12-08T13:10:17+01:00</time>
      </trkpt>
      <trkpt lat="45.52016" lon="6.06039">
        <ele>1028</ele>
        <time>2016-12-08T13:10:38+01:00</time>
      </trkpt>
      <trkpt lat="45.52012" lon="6.06013">
        <ele>1033</ele>
        <time>2016-12-08T13:10:59+01:00</time>
      </trkpt>
      <trkpt lat="45.52013" lon="6.05985">
        <ele>1035</ele>
        <time>2016-12-08T13:11:20+01:00</time>
      </trkpt>
      <trkpt lat="45.52019" lon="6.05955">
        <ele>1035</ele>
        <time>2016-12-08T13:11:56+01:00</time>
      </trkpt>
      <trkpt lat="45.5203" lon="6.05939">
        <ele>1031</ele>
        <time>2016-12-08T13:12:18+01:00</time>
      </trkpt>
      <trkpt lat="45.52031" lon="6.05913">
        <ele>1031</ele>
        <time>2016-12-08T13:13:07+01:00</time>
      </trkpt>
      <trkpt lat="45.52014" lon="6.05899">
        <ele>1036</ele>
        <time>2016-12-08T13:13:45+01:00</time>
      </trkpt>
      <trkpt lat="45.51997" lon="6.05889">
        <ele>1040</ele>
        <time>2016-12-08T13:14:23+01:00</time>
      </trkpt>
      <trkpt lat="45.51986" lon="6.05883">
        <ele>1040</ele>
        <time>2016-12-08T13:14:41+01:00</time>
      </trkpt>
      <trkpt lat="45.51972" lon="6.0587">
        <ele>1039</ele>
        <time>2016-12-08T13:15:00+01:00</time>
      </trkpt>
      <trkpt lat="45.51964" lon="6.05859">
        <ele>1038</ele>
        <time>2016-12-08T13:15:17+01:00</time>
      </trkpt>
      <trkpt lat="45.51951" lon="6.05848">
        <ele>1038</ele>
        <time>2016-12-08T13:15:37+01:00</time>
      </trkpt>
      <trkpt lat="45.51937" lon="6.05844">
        <ele>1039</ele>
        <time>2016-12-08T13:15:58+01:00</time>
      </trkpt>
      <trkpt lat="45.51944" lon="6.05829">
        <ele>1037</ele>
        <time>2016-12-08T13:17:01+01:00</time>
      </trkpt>
      <trkpt lat="45.51953" lon="6.05807">
        <ele>1036</ele>
        <time>2016-12-08T13:17:20+01:00</time>
      </trkpt>
      <trkpt lat="45.51961" lon="6.05781">
        <ele>1035</ele>
        <time>2016-12-08T13:17:41+01:00</time>
      </trkpt>
      <trkpt lat="45.51951" lon="6.05764">
        <ele>1036</ele>
        <time>2016-12-08T13:18:00+01:00</time>
      </trkpt>
      <trkpt lat="45.51947" lon="6.05742">
        <ele>1037</ele>
        <time>2016-12-08T13:18:25+01:00</time>
      </trkpt>
      <trkpt lat="45.51937" lon="6.0572">
        <ele>1039</ele>
        <time>2016-12-08T13:18:43+01:00</time>
      </trkpt>
      <trkpt lat="45.51924" lon="6.05694">
        <ele>1041</ele>
        <time>2016-12-08T13:19:04+01:00</time>
      </trkpt>
      <trkpt lat="45.51916" lon="6.05669">
        <ele>1042</ele>
        <time>2016-12-08T13:19:23+01:00</time>
      </trkpt>
      <trkpt lat="45.51913" lon="6.0564">
        <ele>1046</ele>
        <time>2016-12-08T13:20:00+01:00</time>
      </trkpt>
      <trkpt lat="45.51911" lon="6.05623">
        <ele>1049</ele>
        <time>2016-12-08T13:20:36+01:00</time>
      </trkpt>
      <trkpt lat="45.51907" lon="6.05607">
        <ele>1050</ele>
        <time>2016-12-08T13:20:53+01:00</time>
      </trkpt>
      <trkpt lat="45.51901" lon="6.0559">
        <ele>1051</ele>
        <time>2016-12-08T13:21:11+01:00</time>
      </trkpt>
      <trkpt lat="45.51892" lon="6.05581">
        <ele>1049</ele>
        <time>2016-12-08T13:21:29+01:00</time>
      </trkpt>
      <trkpt lat="45.51887" lon="6.05563">
        <ele>1053</ele>
        <time>2016-12-08T13:21:47+01:00</time>
      </trkpt>
      <trkpt lat="45.51899" lon="6.05542">
        <ele>1064</ele>
        <time>2016-12-08T13:22:26+01:00</time>
      </trkpt>
      <trkpt lat="45.5191" lon="6.05528">
        <ele>1071</ele>
        <time>2016-12-08T13:22:50+01:00</time>
      </trkpt>
      <trkpt lat="45.51914" lon="6.05516">
        <ele>1075</ele>
        <time>2016-12-08T13:23:10+01:00</time>
      </trkpt>
      <trkpt lat="45.51905" lon="6.05497">
        <ele>1078</ele>
        <time>2016-12-08T13:23:50+01:00</time>
      </trkpt>
      <trkpt lat="45.51892" lon="6.05491">
        <ele>1077</ele>
        <time>2016-12-08T13:24:32+01:00</time>
      </trkpt>
      <trkpt lat="45.51878" lon="6.05483">
        <ele>1076</ele>
        <time>2016-12-08T13:24:55+01:00</time>
      </trkpt>
      <trkpt lat="45.51858" lon="6.05464">
        <ele>1079</ele>
        <time>2016-12-08T13:25:16+01:00</time>
      </trkpt>
      <trkpt lat="45.51855" lon="6.05447">
        <ele>1084</ele>
        <time>2016-12-08T13:25:34+01:00</time>
      </trkpt>
      <trkpt lat="45.51852" lon="6.05427">
        <ele>1091</ele>
        <time>2016-12-08T13:25:56+01:00</time>
      </trkpt>
      <trkpt lat="45.51852" lon="6.05405">
        <ele>1098</ele>
        <time>2016-12-08T13:26:18+01:00</time>
      </trkpt>
      <trkpt lat="45.51851" lon="6.0539">
        <ele>1101</ele>
        <time>2016-12-08T13:26:38+01:00</time>
      </trkpt>
      <trkpt lat="45.51849" lon="6.05365">
        <ele>1106</ele>
        <time>2016-12-08T13:26:59+01:00</time>
      </trkpt>
      <trkpt lat="45.51852" lon="6.05352">
        <ele>1108</ele>
        <time>2016-12-08T13:27:13+01:00</time>
      </trkpt>
      <trkpt lat="45.51854" lon="6.05333">
        <ele>1112</ele>
        <time>2016-12-08T13:27:33+01:00</time>
      </trkpt>
      <trkpt lat="45.51855" lon="6.05308">
        <ele>1115</ele>
        <time>2016-12-08T13:28:11+01:00</time>
      </trkpt>
      <trkpt lat="45.51853" lon="6.05277">
        <ele>1119</ele>
        <time>2016-12-08T13:28:47+01:00</time>
      </trkpt>
      <trkpt lat="45.51853" lon="6.05248">
        <ele>1122</ele>
        <time>2016-12-08T13:29:28+01:00</time>
      </trkpt>
      <trkpt lat="45.51862" lon="6.05221">
        <ele>1122</ele>
        <time>2016-12-08T13:30:31+01:00</time>
      </trkpt>
      <trkpt lat="45.51853" lon="6.052">
        <ele>1126</ele>
        <time>2016-12-08T13:30:51+01:00</time>
      </trkpt>
      <trkpt lat="45.5184" lon="6.05187">
        <ele>1131</ele>
        <time>2016-12-08T13:31:30+01:00</time>
      </trkpt>
      <trkpt lat="45.51823" lon="6.05166">
        <ele>1135</ele>
        <time>2016-12-08T13:32:11+01:00</time>
      </trkpt>
      <trkpt lat="45.51818" lon="6.05149">
        <ele>1137</ele>
        <time>2016-12-08T13:32:33+01:00</time>
      </trkpt>
      <trkpt lat="45.51812" lon="6.05128">
        <ele>1140</ele>
        <time>2016-12-08T13:33:05+01:00</time>
      </trkpt>
      <trkpt lat="45.51798" lon="6.05117">
        <ele>1144</ele>
        <time>2016-12-08T13:33:26+01:00</time>
      </trkpt>
      <trkpt lat="45.51778" lon="6.05102">
        <ele>1152</ele>
        <time>2016-12-08T13:34:20+01:00</time>
      </trkpt>
      <trkpt lat="45.5176" lon="6.05091">
        <ele>1161</ele>
        <time>2016-12-08T13:40:10+01:00</time>
      </trkpt>
      <trkpt lat="45.51748" lon="6.05069">
        <ele>1169</ele>
        <time>2016-12-08T13:41:25+01:00</time>
      </trkpt>
      <trkpt lat="45.51746" lon="6.05044">
        <ele>1174</ele>
        <time>2016-12-08T13:42:10+01:00</time>
      </trkpt>
      <trkpt lat="45.51743" lon="6.05017">
        <ele>1180</ele>
        <time>2016-12-08T13:42:58+01:00</time>
      </trkpt>
      <trkpt lat="45.51734" lon="6.04993">
        <ele>1184</ele>
        <time>2016-12-08T13:43:44+01:00</time>
      </trkpt>
      <trkpt lat="45.51727" lon="6.04978">
        <ele>1185</ele>
        <time>2016-12-08T13:44:08+01:00</time>
      </trkpt>
      <trkpt lat="45.51723" lon="6.04963">
        <ele>1186</ele>
        <time>2016-12-08T13:44:30+01:00</time>
      </trkpt>
      <trkpt lat="45.51717" lon="6.04944">
        <ele>1188</ele>
        <time>2016-12-08T13:44:54+01:00</time>
      </trkpt>
      <trkpt lat="45.51713" lon="6.04923">
        <ele>1191</ele>
        <time>2016-12-08T13:45:50+01:00</time>
      </trkpt>
      <trkpt lat="45.51713" lon="6.04902">
        <ele>1191</ele>
        <time>2016-12-08T13:50:16+01:00</time>
      </trkpt>
      <trkpt lat="45.51714" lon="6.04922">
        <ele>1191</ele>
        <time>2016-12-08T13:54:47+01:00</time>
      </trkpt>
      <trkpt lat="45.51717" lon="6.04941">
        <ele>1189</ele>
        <time>2016-12-08T13:55:08+01:00</time>
      </trkpt>
      <trkpt lat="45.5172" lon="6.04958">
        <ele>1187</ele>
        <time>2016-12-08T13:55:29+01:00</time>
      </trkpt>
      <trkpt lat="45.51726" lon="6.04976">
        <ele>1185</ele>
        <time>2016-12-08T13:55:50+01:00</time>
      </trkpt>
      <trkpt lat="45.5173" lon="6.04989">
        <ele>1184</ele>
        <time>2016-12-08T13:56:11+01:00</time>
      </trkpt>
      <trkpt lat="45.51742" lon="6.05017">
        <ele>1179</ele>
        <time>2016-12-08T13:56:49+01:00</time>
      </trkpt>
      <trkpt lat="45.51745" lon="6.0504">
        <ele>1175</ele>
        <time>2016-12-08T13:57:29+01:00</time>
      </trkpt>
      <trkpt lat="45.51746" lon="6.0507">
        <ele>1168</ele>
        <time>2016-12-08T13:58:08+01:00</time>
      </trkpt>
      <trkpt lat="45.51756" lon="6.05087">
        <ele>1164</ele>
        <time>2016-12-08T13:58:51+01:00</time>
      </trkpt>
      <trkpt lat="45.51767" lon="6.05102">
        <ele>1155</ele>
        <time>2016-12-08T13:59:29+01:00</time>
      </trkpt>
      <trkpt lat="45.51786" lon="6.05112">
        <ele>1148</ele>
        <time>2016-12-08T14:00:07+01:00</time>
      </trkpt>
      <trkpt lat="45.51805" lon="6.05117">
        <ele>1143</ele>
        <time>2016-12-08T14:00:47+01:00</time>
      </trkpt>
      <trkpt lat="45.51813" lon="6.05125">
        <ele>1140</ele>
        <time>2016-12-08T14:01:07+01:00</time>
      </trkpt>
      <trkpt lat="45.51818" lon="6.05147">
        <ele>1137</ele>
        <time>2016-12-08T14:01:28+01:00</time>
      </trkpt>
      <trkpt lat="45.51823" lon="6.05168">
        <ele>1135</ele>
        <time>2016-12-08T14:01:50+01:00</time>
      </trkpt>
      <trkpt lat="45.51841" lon="6.05187">
        <ele>1131</ele>
        <time>2016-12-08T14:02:24+01:00</time>
      </trkpt>
      <trkpt lat="45.51855" lon="6.05205">
        <ele>1125</ele>
        <time>2016-12-08T14:03:02+01:00</time>
      </trkpt>
      <trkpt lat="45.51862" lon="6.05223">
        <ele>1122</ele>
        <time>2016-12-08T14:03:22+01:00</time>
      </trkpt>
      <trkpt lat="45.51853" lon="6.05248">
        <ele>1122</ele>
        <time>2016-12-08T14:04:02+01:00</time>
      </trkpt>
      <trkpt lat="45.51853" lon="6.05278">
        <ele>1119</ele>
        <time>2016-12-08T14:04:35+01:00</time>
      </trkpt>
      <trkpt lat="45.51855" lon="6.05307">
        <ele>1115</ele>
        <time>2016-12-08T14:04:52+01:00</time>
      </trkpt>
      <trkpt lat="45.51854" lon="6.05335">
        <ele>1112</ele>
        <time>2016-12-08T14:05:24+01:00</time>
      </trkpt>
      <trkpt lat="45.51851" lon="6.05358">
        <ele>1107</ele>
        <time>2016-12-08T14:05:56+01:00</time>
      </trkpt>
      <trkpt lat="45.51848" lon="6.05376">
        <ele>1104</ele>
        <time>2016-12-08T14:06:14+01:00</time>
      </trkpt>
      <trkpt lat="45.51854" lon="6.05404">
        <ele>1098</ele>
        <time>2016-12-08T14:06:35+01:00</time>
      </trkpt>
      <trkpt lat="45.51851" lon="6.05427">
        <ele>1091</ele>
        <time>2016-12-08T14:06:59+01:00</time>
      </trkpt>
      <trkpt lat="45.51855" lon="6.05447">
        <ele>1084</ele>
        <time>2016-12-08T14:07:18+01:00</time>
      </trkpt>
      <trkpt lat="45.51858" lon="6.05463">
        <ele>1079</ele>
        <time>2016-12-08T14:07:38+01:00</time>
      </trkpt>
      <trkpt lat="45.51885" lon="6.05488">
        <ele>1076</ele>
        <time>2016-12-08T14:07:59+01:00</time>
      </trkpt>
      <trkpt lat="45.51906" lon="6.05497">
        <ele>1078</ele>
        <time>2016-12-08T14:08:36+01:00</time>
      </trkpt>
      <trkpt lat="45.51917" lon="6.05508">
        <ele>1078</ele>
        <time>2016-12-08T14:09:11+01:00</time>
      </trkpt>
      <trkpt lat="45.5191" lon="6.05529">
        <ele>1071</ele>
        <time>2016-12-08T14:09:31+01:00</time>
      </trkpt>
      <trkpt lat="45.51897" lon="6.05542">
        <ele>1063</ele>
        <time>2016-12-08T14:09:50+01:00</time>
      </trkpt>
      <trkpt lat="45.51887" lon="6.05562">
        <ele>1053</ele>
        <time>2016-12-08T14:10:29+01:00</time>
      </trkpt>
      <trkpt lat="45.51892" lon="6.0558">
        <ele>1050</ele>
        <time>2016-12-08T14:10:49+01:00</time>
      </trkpt>
      <trkpt lat="45.51901" lon="6.0559">
        <ele>1051</ele>
        <time>2016-12-08T14:11:10+01:00</time>
      </trkpt>
      <trkpt lat="45.51906" lon="6.05608">
        <ele>1050</ele>
        <time>2016-12-08T14:11:31+01:00</time>
      </trkpt>
      <trkpt lat="45.51919" lon="6.05627">
        <ele>1050</ele>
        <time>2016-12-08T14:12:09+01:00</time>
      </trkpt>
      <trkpt lat="45.51913" lon="6.0564">
        <ele>1046</ele>
        <time>2016-12-08T14:12:24+01:00</time>
      </trkpt>
      <trkpt lat="45.51916" lon="6.05669">
        <ele>1042</ele>
        <time>2016-12-08T14:12:39+01:00</time>
      </trkpt>
      <trkpt lat="45.51924" lon="6.05694">
        <ele>1041</ele>
        <time>2016-12-08T14:12:57+01:00</time>
      </trkpt>
      <trkpt lat="45.51937" lon="6.05719">
        <ele>1039</ele>
        <time>2016-12-08T14:13:21+01:00</time>
      </trkpt>
      <trkpt lat="45.51947" lon="6.05742">
        <ele>1037</ele>
        <time>2016-12-08T14:13:43+01:00</time>
      </trkpt>
      <trkpt lat="45.51952" lon="6.05764">
        <ele>1036</ele>
        <time>2016-12-08T14:14:04+01:00</time>
      </trkpt>
      <trkpt lat="45.51961" lon="6.05781">
        <ele>1035</ele>
        <time>2016-12-08T14:14:31+01:00</time>
      </trkpt>
      <trkpt lat="45.5195" lon="6.05809">
        <ele>1036</ele>
        <time>2016-12-08T14:14:54+01:00</time>
      </trkpt>
      <trkpt lat="45.51944" lon="6.05829">
        <ele>1037</ele>
        <time>2016-12-08T14:15:12+01:00</time>
      </trkpt>
      <trkpt lat="45.51952" lon="6.05851">
        <ele>1038</ele>
        <time>2016-12-08T14:15:57+01:00</time>
      </trkpt>
      <trkpt lat="45.5196" lon="6.05858">
        <ele>1039</ele>
        <time>2016-12-08T14:16:11+01:00</time>
      </trkpt>
      <trkpt lat="45.51975" lon="6.05873">
        <ele>1039</ele>
        <time>2016-12-08T14:16:34+01:00</time>
      </trkpt>
      <trkpt lat="45.51986" lon="6.05884">
        <ele>1040</ele>
        <time>2016-12-08T14:16:51+01:00</time>
      </trkpt>
      <trkpt lat="45.52007" lon="6.05893">
        <ele>1038</ele>
        <time>2016-12-08T14:17:26+01:00</time>
      </trkpt>
      <trkpt lat="45.52026" lon="6.05906">
        <ele>1032</ele>
        <time>2016-12-08T14:18:01+01:00</time>
      </trkpt>
      <trkpt lat="45.52033" lon="6.05927">
        <ele>1031</ele>
        <time>2016-12-08T14:18:35+01:00</time>
      </trkpt>
      <trkpt lat="45.5203" lon="6.05938">
        <ele>1031</ele>
        <time>2016-12-08T14:18:52+01:00</time>
      </trkpt>
      <trkpt lat="45.52019" lon="6.05954">
        <ele>1035</ele>
        <time>2016-12-08T14:19:14+01:00</time>
      </trkpt>
      <trkpt lat="45.52015" lon="6.05969">
        <ele>1035</ele>
        <time>2016-12-08T14:19:30+01:00</time>
      </trkpt>
      <trkpt lat="45.52013" lon="6.05995">
        <ele>1034</ele>
        <time>2016-12-08T14:19:56+01:00</time>
      </trkpt>
      <trkpt lat="45.52013" lon="6.06013">
        <ele>1032</ele>
        <time>2016-12-08T14:20:12+01:00</time>
      </trkpt>
      <trkpt lat="45.52017" lon="6.06038">
        <ele>1028</ele>
        <time>2016-12-08T14:20:34+01:00</time>
      </trkpt>
      <trkpt lat="45.5202" lon="6.06057">
        <ele>1025</ele>
        <time>2016-12-08T14:20:48+01:00</time>
      </trkpt>
      <trkpt lat="45.52024" lon="6.06073">
        <ele>1022</ele>
        <time>2016-12-08T14:20:56+01:00</time>
      </trkpt>
      <trkpt lat="45.5204" lon="6.06086">
        <ele>1019</ele>
        <time>2016-12-08T14:21:08+01:00</time>
      </trkpt>
      <trkpt lat="45.52051" lon="6.06095">
        <ele>1017</ele>
        <time>2016-12-08T14:21:29+01:00</time>
      </trkpt>
      <trkpt lat="45.52062" lon="6.06105">
        <ele>1015</ele>
        <time>2016-12-08T14:21:51+01:00</time>
      </trkpt>
      <trkpt lat="45.52076" lon="6.06113">
        <ele>1014</ele>
        <time>2016-12-08T14:22:12+01:00</time>
      </trkpt>
      <trkpt lat="45.52091" lon="6.06111">
        <ele>1012</ele>
        <time>2016-12-08T14:22:34+01:00</time>
      </trkpt>
      <trkpt lat="45.52104" lon="6.06106">
        <ele>1011</ele>
        <time>2016-12-08T14:22:55+01:00</time>
      </trkpt>
      <trkpt lat="45.52124" lon="6.06085">
        <ele>1008</ele>
        <time>2016-12-08T14:23:13+01:00</time>
      </trkpt>
      <trkpt lat="45.52136" lon="6.06068">
        <ele>1005</ele>
        <time>2016-12-08T14:23:36+01:00</time>
      </trkpt>
      <trkpt lat="45.52151" lon="6.06054">
        <ele>1001</ele>
        <time>2016-12-08T14:23:49+01:00</time>
      </trkpt>
      <trkpt lat="45.5217" lon="6.06058">
        <ele>998</ele>
        <time>2016-12-08T14:24:10+01:00</time>
      </trkpt>
      <trkpt lat="45.52177" lon="6.06033">
        <ele>993</ele>
        <time>2016-12-08T14:24:48+01:00</time>
      </trkpt>
      <trkpt lat="45.52165" lon="6.06007">
        <ele>992</ele>
        <time>2016-12-08T14:25:27+01:00</time>
      </trkpt>
      <trkpt lat="45.52183" lon="6.06001">
        <ele>987</ele>
        <time>2016-12-08T14:26:03+01:00</time>
      </trkpt>
      <trkpt lat="45.52196" lon="6.05999">
        <ele>984</ele>
        <time>2016-12-08T14:26:23+01:00</time>
      </trkpt>
      <trkpt lat="45.5221" lon="6.05998">
        <ele>980</ele>
        <time>2016-12-08T14:26:40+01:00</time>
      </trkpt>
      <trkpt lat="45.52226" lon="6.06002">
        <ele>976</ele>
        <time>2016-12-08T14:26:59+01:00</time>
      </trkpt>
      <trkpt lat="45.52247" lon="6.06002">
        <ele>971</ele>
        <time>2016-12-08T14:27:31+01:00</time>
      </trkpt>
      <trkpt lat="45.52257" lon="6.06012">
        <ele>971</ele>
        <time>2016-12-08T14:27:47+01:00</time>
      </trkpt>
      <trkpt lat="45.5227" lon="6.06024">
        <ele>971</ele>
        <time>2016-12-08T14:28:04+01:00</time>
      </trkpt>
      <trkpt lat="45.52284" lon="6.06024">
        <ele>968</ele>
        <time>2016-12-08T14:28:23+01:00</time>
      </trkpt>
      <trkpt lat="45.52306" lon="6.06028">
        <ele>964</ele>
        <time>2016-12-08T14:28:50+01:00</time>
      </trkpt>
      <trkpt lat="45.52326" lon="6.06037">
        <ele>961</ele>
        <time>2016-12-08T14:29:10+01:00</time>
      </trkpt>
      <trkpt lat="45.52347" lon="6.06036">
        <ele>955</ele>
        <time>2016-12-08T14:29:36+01:00</time>
      </trkpt>
      <trkpt lat="45.52366" lon="6.06038">
        <ele>950</ele>
        <time>2016-12-08T14:29:56+01:00</time>
      </trkpt>
      <trkpt lat="45.52385" lon="6.06046">
        <ele>946</ele>
        <time>2016-12-08T14:30:15+01:00</time>
      </trkpt>
      <trkpt lat="45.52403" lon="6.06058">
        <ele>942</ele>
        <time>2016-12-08T14:30:37+01:00</time>
      </trkpt>
      <trkpt lat="45.52416" lon="6.06071">
        <ele>940</ele>
        <time>2016-12-08T14:30:54+01:00</time>
      </trkpt>
      <trkpt lat="45.52433" lon="6.06083">
        <ele>937</ele>
        <time>2016-12-08T14:31:12+01:00</time>
      </trkpt>
      <trkpt lat="45.52452" lon="6.06099">
        <ele>935</ele>
        <time>2016-12-08T14:31:41+01:00</time>
      </trkpt>
      <trkpt lat="45.52471" lon="6.06113">
        <ele>933</ele>
        <time>2016-12-08T14:32:05+01:00</time>
      </trkpt>
      <trkpt lat="45.52487" lon="6.06124">
        <ele>930</ele>
        <time>2016-12-08T14:32:24+01:00</time>
      </trkpt>
      <trkpt lat="45.52499" lon="6.06141">
        <ele>929</ele>
        <time>2016-12-08T14:32:42+01:00</time>
      </trkpt>
      <trkpt lat="45.52513" lon="6.06152">
        <ele>928</ele>
        <time>2016-12-08T14:32:58+01:00</time>
      </trkpt>
      <trkpt lat="45.5253" lon="6.0617">
        <ele>926</ele>
        <time>2016-12-08T14:33:19+01:00</time>
      </trkpt>
      <trkpt lat="45.52534" lon="6.06176">
        <ele>926</ele>
        <time>2016-12-08T14:33:25+01:00</time>
      </trkpt>
      <trkpt lat="45.52552" lon="6.06188">
        <ele>924</ele>
        <time>2016-12-08T14:33:44+01:00</time>
      </trkpt>
      <trkpt lat="45.52574" lon="6.06198">
        <ele>920</ele>
        <time>2016-12-08T14:34:07+01:00</time>
      </trkpt>
      <trkpt lat="45.52594" lon="6.06211">
        <ele>918</ele>
        <time>2016-12-08T14:34:27+01:00</time>
      </trkpt>
      <trkpt lat="45.52611" lon="6.06228">
        <ele>918</ele>
        <time>2016-12-08T14:34:48+01:00</time>
      </trkpt>
      <trkpt lat="45.52623" lon="6.06241">
        <ele>918</ele>
        <time>2016-12-08T14:35:05+01:00</time>
      </trkpt>
      <trkpt lat="45.52641" lon="6.06234">
        <ele>912</ele>
        <time>2016-12-08T14:35:25+01:00</time>
      </trkpt>
      <trkpt lat="45.52657" lon="6.06227">
        <ele>906</ele>
        <time>2016-12-08T14:35:41+01:00</time>
      </trkpt>
      <trkpt lat="45.52674" lon="6.06224">
        <ele>901</ele>
        <time>2016-12-08T14:36:09+01:00</time>
      </trkpt>
      <trkpt lat="45.52687" lon="6.06228">
        <ele>900</ele>
        <time>2016-12-08T14:36:25+01:00</time>
      </trkpt>
      <trkpt lat="45.52699" lon="6.06245">
        <ele>902</ele>
        <time>2016-12-08T14:36:43+01:00</time>
      </trkpt>
      <trkpt lat="45.52711" lon="6.06256">
        <ele>902</ele>
        <time>2016-12-08T14:36:59+01:00</time>
      </trkpt>
      <trkpt lat="45.52728" lon="6.06256">
        <ele>899</ele>
        <time>2016-12-08T14:37:16+01:00</time>
      </trkpt>
      <trkpt lat="45.52749" lon="6.06247">
        <ele>893</ele>
        <time>2016-12-08T14:37:42+01:00</time>
      </trkpt>
      <trkpt lat="45.52764" lon="6.06234">
        <ele>891</ele>
        <time>2016-12-08T14:38:09+01:00</time>
      </trkpt>
      <trkpt lat="45.52781" lon="6.06239">
        <ele>892</ele>
        <time>2016-12-08T14:40:05+01:00</time>
      </trkpt>
      <trkpt lat="45.52789" lon="6.06262">
        <ele>896</ele>
        <time>2016-12-08T14:40:38+01:00</time>
      </trkpt>
      <trkpt lat="45.52792" lon="6.06288">
        <ele>901</ele>
        <time>2016-12-08T14:41:24+01:00</time>
      </trkpt>
      <trkpt lat="45.52796" lon="6.063">
        <ele>904</ele>
        <time>2016-12-08T14:41:39+01:00</time>
      </trkpt>
      <trkpt lat="45.52803" lon="6.06317">
        <ele>907</ele>
        <time>2016-12-08T14:42:08+01:00</time>
      </trkpt>
      <trkpt lat="45.52815" lon="6.06327">
        <ele>908</ele>
        <time>2016-12-08T14:42:34+01:00</time>
      </trkpt>
      <trkpt lat="45.52826" lon="6.06334">
        <ele>908</ele>
        <time>2016-12-08T14:42:57+01:00</time>
      </trkpt>
      <trkpt lat="45.52835" lon="6.06361">
        <ele>916</ele>
        <time>2016-12-08T14:43:36+01:00</time>
      </trkpt>
      <trkpt lat="45.5285" lon="6.06385">
        <ele>924</ele>
        <time>2016-12-08T14:44:51+01:00</time>
      </trkpt>
      <trkpt lat="45.52855" lon="6.06399">
        <ele>928</ele>
        <time>2016-12-08T14:45:14+01:00</time>
      </trkpt>
      <trkpt lat="45.52866" lon="6.06407">
        <ele>931</ele>
        <time>2016-12-08T14:45:36+01:00</time>
      </trkpt>
      <trkpt lat="45.52877" lon="6.06424">
        <ele>936</ele>
        <time>2016-12-08T14:46:03+01:00</time>
      </trkpt>
      <trkpt lat="45.52897" lon="6.06432">
        <ele>939</ele>
        <time>2016-12-08T14:46:37+01:00</time>
      </trkpt>
      <trkpt lat="45.52915" lon="6.06449">
        <ele>944</ele>
        <time>2016-12-08T14:47:47+01:00</time>
      </trkpt>
      <trkpt lat="45.52929" lon="6.06465">
        <ele>952</ele>
        <time>2016-12-08T14:48:32+01:00</time>
      </trkpt>
      <trkpt lat="45.52928" lon="6.06489">
        <ele>958</ele>
        <time>2016-12-08T14:52:39+01:00</time>
      </trkpt>
      <trkpt lat="45.52916" lon="6.06512">
        <ele>962</ele>
        <time>2016-12-08T14:53:25+01:00</time>
      </trkpt>
      <trkpt lat="45.52907" lon="6.06534">
        <ele>968</ele>
        <time>2016-12-08T14:54:05+01:00</time>
      </trkpt>
      <trkpt lat="45.52906" lon="6.06557">
        <ele>974</ele>
        <time>2016-12-08T14:54:45+01:00</time>
      </trkpt>
      <trkpt lat="45.52906" lon="6.06584">
        <ele>981</ele>
        <time>2016-12-08T14:55:26+01:00</time>
      </trkpt>
      <trkpt lat="45.52918" lon="6.06606">
        <ele>988</ele>
        <time>2016-12-08T14:55:52+01:00</time>
      </trkpt>
      <trkpt lat="45.52927" lon="6.06613">
        <ele>991</ele>
        <time>2016-12-08T14:56:16+01:00</time>
      </trkpt>
      <trkpt lat="45.52939" lon="6.06618">
        <ele>994</ele>
        <time>2016-12-08T14:56:35+01:00</time>
      </trkpt>
      <trkpt lat="45.52957" lon="6.06635">
        <ele>1001</ele>
        <time>2016-12-08T14:57:11+01:00</time>
      </trkpt>
      <trkpt lat="45.5297" lon="6.06646">
        <ele>1005</ele>
        <time>2016-12-08T14:57:36+01:00</time>
      </trkpt>
      <trkpt lat="45.52984" lon="6.06648">
        <ele>1007</ele>
        <time>2016-12-08T14:58:02+01:00</time>
      </trkpt>
      <trkpt lat="45.52999" lon="6.06661">
        <ele>1011</ele>
        <time>2016-12-08T14:59:26+01:00</time>
      </trkpt>
      <trkpt lat="45.53006" lon="6.06663">
        <ele>1013</ele>
        <time>2016-12-08T14:59:52+01:00</time>
      </trkpt>
      <trkpt lat="45.53019" lon="6.0669">
        <ele>1019</ele>
        <time>2016-12-08T15:00:32+01:00</time>
      </trkpt>
      <trkpt lat="45.53029" lon="6.06712">
        <ele>1023</ele>
        <time>2016-12-08T15:01:07+01:00</time>
      </trkpt>
      <trkpt lat="45.5304" lon="6.06735">
        <ele>1026</ele>
        <time>2016-12-08T15:01:42+01:00</time>
      </trkpt>
      <trkpt lat="45.53052" lon="6.06754">
        <ele>1030</ele>
        <time>2016-12-08T15:02:04+01:00</time>
      </trkpt>
      <trkpt lat="45.53066" lon="6.06761">
        <ele>1032</ele>
        <time>2016-12-08T15:02:22+01:00</time>
      </trkpt>
      <trkpt lat="45.53086" lon="6.06771">
        <ele>1034</ele>
        <time>2016-12-08T15:02:49+01:00</time>
      </trkpt>
      <trkpt lat="45.53098" lon="6.06784">
        <ele>1037</ele>
        <time>2016-12-08T15:03:16+01:00</time>
      </trkpt>
      <trkpt lat="45.53113" lon="6.06797">
        <ele>1040</ele>
        <time>2016-12-08T15:03:49+01:00</time>
      </trkpt>
      <trkpt lat="45.53135" lon="6.06795">
        <ele>1044</ele>
        <time>2016-12-08T15:04:32+01:00</time>
      </trkpt>
      <trkpt lat="45.53147" lon="6.06801">
        <ele>1046</ele>
        <time>2016-12-08T15:05:10+01:00</time>
      </trkpt>
      <trkpt lat="45.53157" lon="6.068">
        <ele>1048</ele>
        <time>2016-12-08T15:08:10+01:00</time>
      </trkpt>
      <trkpt lat="45.53169" lon="6.06797">
        <ele>1051</ele>
        <time>2016-12-08T15:08:31+01:00</time>
      </trkpt>
      <trkpt lat="45.53182" lon="6.06786">
        <ele>1054</ele>
        <time>2016-12-08T15:09:06+01:00</time>
      </trkpt>
      <trkpt lat="45.53199" lon="6.06798">
        <ele>1058</ele>
        <time>2016-12-08T15:09:47+01:00</time>
      </trkpt>
      <trkpt lat="45.53226" lon="6.06818">
        <ele>1062</ele>
        <time>2016-12-08T15:10:29+01:00</time>
      </trkpt>
      <trkpt lat="45.53242" lon="6.06825">
        <ele>1064</ele>
        <time>2016-12-08T15:10:51+01:00</time>
      </trkpt>
      <trkpt lat="45.53252" lon="6.06834">
        <ele>1065</ele>
        <time>2016-12-08T15:11:09+01:00</time>
      </trkpt>
      <trkpt lat="45.53271" lon="6.06837">
        <ele>1066</ele>
        <time>2016-12-08T15:11:37+01:00</time>
      </trkpt>
      <trkpt lat="45.53285" lon="6.06848">
        <ele>1063</ele>
        <time>2016-12-08T15:12:03+01:00</time>
      </trkpt>
      <trkpt lat="45.53298" lon="6.06857">
        <ele>1060</ele>
        <time>2016-12-08T15:12:26+01:00</time>
      </trkpt>
      <trkpt lat="45.53331" lon="6.06854">
        <ele>1061</ele>
        <time>2016-12-08T15:12:59+01:00</time>
      </trkpt>
      <trkpt lat="45.53362" lon="6.06849">
        <ele>1060</ele>
        <time>2016-12-08T15:13:23+01:00</time>
      </trkpt>
      <trkpt lat="45.53388" lon="6.06855">
        <ele>1055</ele>
        <time>2016-12-08T15:13:42+01:00</time>
      </trkpt>
      <trkpt lat="45.53418" lon="6.06856">
        <ele>1052</ele>
        <time>2016-12-08T15:14:11+01:00</time>
      </trkpt>
      <trkpt lat="45.53437" lon="6.06862">
        <ele>1048</ele>
        <time>2016-12-08T15:15:05+01:00</time>
      </trkpt>
      <trkpt lat="45.53454" lon="6.06866">
        <ele>1046</ele>
        <time>2016-12-08T15:15:18+01:00</time>
      </trkpt>
      <trkpt lat="45.53468" lon="6.0687">
        <ele>1043</ele>
        <time>2016-12-08T15:15:34+01:00</time>
      </trkpt>
      <trkpt lat="45.53513" lon="6.06868">
        <ele>1041</ele>
        <time>2016-12-08T15:16:31+01:00</time>
      </trkpt>
      <trkpt lat="45.53534" lon="6.06868">
        <ele>1038</ele>
        <time>2016-12-08T15:16:54+01:00</time>
      </trkpt>
      <trkpt lat="45.53576" lon="6.06872">
        <ele>1032</ele>
        <time>2016-12-08T15:17:39+01:00</time>
      </trkpt>
      <trkpt lat="45.53645" lon="6.06876">
        <ele>1023</ele>
        <time>2016-12-08T15:18:18+01:00</time>
      </trkpt>
      <trkpt lat="45.5367" lon="6.06877">
        <ele>1019</ele>
        <time>2016-12-08T15:18:31+01:00</time>
      </trkpt>
      <trkpt lat="45.53691" lon="6.0687">
        <ele>1017</ele>
        <time>2016-12-08T15:19:46+01:00</time>
      </trkpt>
      <trkpt lat="45.53722" lon="6.06854">
        <ele>1015</ele>
        <time>2016-12-08T15:20:20+01:00</time>
      </trkpt>
      <trkpt lat="45.53748" lon="6.06864">
        <ele>1010</ele>
        <time>2016-12-08T15:20:37+01:00</time>
      </trkpt>
      <trkpt lat="45.53763" lon="6.06864">
        <ele>1008</ele>
        <time>2016-12-08T15:20:54+01:00</time>
      </trkpt>
      <trkpt lat="45.53792" lon="6.06879">
        <ele>1004</ele>
        <time>2016-12-08T15:21:25+01:00</time>
      </trkpt>
      <trkpt lat="45.53798" lon="6.06907">
        <ele>1003</ele>
        <time>2016-12-08T15:21:52+01:00</time>
      </trkpt>
      <trkpt lat="45.5382" lon="6.06944">
        <ele>1001</ele>
        <time>2016-12-08T15:22:33+01:00</time>
      </trkpt>
      <trkpt lat="45.53842" lon="6.06985">
        <ele>1000</ele>
        <time>2016-12-08T15:23:10+01:00</time>
      </trkpt>
      <trkpt lat="45.53869" lon="6.07033">
        <ele>998</ele>
        <time>2016-12-08T15:23:56+01:00</time>
      </trkpt>
      <trkpt lat="45.53876" lon="6.07045">
        <ele>998</ele>
        <time>2016-12-08T15:24:12+01:00</time>
      </trkpt>
      <trkpt lat="45.53896" lon="6.07054">
        <ele>999</ele>
        <time>2016-12-08T15:24:41+01:00</time>
      </trkpt>
      <trkpt lat="45.53935" lon="6.07101">
        <ele>995</ele>
        <time>2016-12-08T15:25:30+01:00</time>
      </trkpt>
      <trkpt lat="45.53948" lon="6.07126">
        <ele>990</ele>
        <time>2016-12-08T15:25:52+01:00</time>
      </trkpt>
      <trkpt lat="45.53952" lon="6.0713">
        <ele>990</ele>
        <time>2016-12-08T15:25:58+01:00</time>
      </trkpt>
      <trkpt lat="45.53971" lon="6.0715">
        <ele>987</ele>
        <time>2016-12-08T15:26:31+01:00</time>
      </trkpt>
      <trkpt lat="45.53986" lon="6.07141">
        <ele>988</ele>
        <time>2016-12-08T15:26:55+01:00</time>
      </trkpt>
      <trkpt lat="45.54006" lon="6.07122">
        <ele>989</ele>
        <time>2016-12-08T15:27:20+01:00</time>
      </trkpt>
      <trkpt lat="45.54023" lon="6.07107">
        <ele>990</ele>
        <time>2016-12-08T15:27:36+01:00</time>
      </trkpt>
      <trkpt lat="45.54034" lon="6.07088">
        <ele>990</ele>
        <time>2016-12-08T15:27:52+01:00</time>
      </trkpt>
      <trkpt lat="45.54051" lon="6.07062">
        <ele>986</ele>
        <time>2016-12-08T15:28:10+01:00</time>
      </trkpt>
      <trkpt lat="45.5406" lon="6.07032">
        <ele>980</ele>
        <time>2016-12-08T15:28:32+01:00</time>
      </trkpt>
      <trkpt lat="45.54058" lon="6.07005">
        <ele>975</ele>
        <time>2016-12-08T15:28:46+01:00</time>
      </trkpt>
      <trkpt lat="45.5406" lon="6.06988">
        <ele>971</ele>
        <time>2016-12-08T15:28:59+01:00</time>
      </trkpt>
      <trkpt lat="45.54063" lon="6.0695">
        <ele>961</ele>
        <time>2016-12-08T15:29:25+01:00</time>
      </trkpt>
      <trkpt lat="45.54078" lon="6.0695">
        <ele>958</ele>
        <time>2016-12-08T15:29:39+01:00</time>
      </trkpt>
      <trkpt lat="45.54087" lon="6.06966">
        <ele>960</ele>
        <time>2016-12-08T15:29:54+01:00</time>
      </trkpt>
      <trkpt lat="45.54094" lon="6.06988">
        <ele>963</ele>
        <time>2016-12-08T15:30:12+01:00</time>
      </trkpt>
      <trkpt lat="45.54104" lon="6.07001">
        <ele>964</ele>
        <time>2016-12-08T15:30:27+01:00</time>
      </trkpt>
      <trkpt lat="45.54112" lon="6.07014">
        <ele>965</ele>
        <time>2016-12-08T15:30:41+01:00</time>
      </trkpt>
      <trkpt lat="45.5412" lon="6.07025">
        <ele>967</ele>
        <time>2016-12-08T15:30:55+01:00</time>
      </trkpt>
      <trkpt lat="45.54136" lon="6.07048">
        <ele>970</ele>
        <time>2016-12-08T15:31:21+01:00</time>
      </trkpt>
      <trkpt lat="45.54152" lon="6.0707">
        <ele>974</ele>
        <time>2016-12-08T15:31:46+01:00</time>
      </trkpt>
      <trkpt lat="45.54161" lon="6.07081">
        <ele>975</ele>
        <time>2016-12-08T15:32:02+01:00</time>
      </trkpt>
      <trkpt lat="45.54169" lon="6.07092">
        <ele>976</ele>
        <time>2016-12-08T15:32:20+01:00</time>
      </trkpt>
      <trkpt lat="45.54178" lon="6.07107">
        <ele>978</ele>
        <time>2016-12-08T15:32:35+01:00</time>
      </trkpt>
      <trkpt lat="45.54193" lon="6.07123">
        <ele>980</ele>
        <time>2016-12-08T15:32:59+01:00</time>
      </trkpt>
      <trkpt lat="45.54198" lon="6.07131">
        <ele>981</ele>
        <time>2016-12-08T15:33:12+01:00</time>
      </trkpt>
      <trkpt lat="45.54209" lon="6.07146">
        <ele>984</ele>
        <time>2016-12-08T15:33:31+01:00</time>
      </trkpt>
      <trkpt lat="45.54217" lon="6.07157">
        <ele>986</ele>
        <time>2016-12-08T15:33:49+01:00</time>
      </trkpt>
      <trkpt lat="45.54234" lon="6.07173">
        <ele>990</ele>
        <time>2016-12-08T15:34:14+01:00</time>
      </trkpt>
      <trkpt lat="45.54241" lon="6.07173">
        <ele>990</ele>
        <time>2016-12-08T15:34:23+01:00</time>
      </trkpt>
      <trkpt lat="45.54258" lon="6.07171">
        <ele>989</ele>
        <time>2016-12-08T15:34:50+01:00</time>
      </trkpt>
      <trkpt lat="45.54275" lon="6.07176">
        <ele>990</ele>
        <time>2016-12-08T15:35:24+01:00</time>
      </trkpt>
      <trkpt lat="45.5429" lon="6.07177">
        <ele>990</ele>
        <time>2016-12-08T15:35:48+01:00</time>
      </trkpt>
      <trkpt lat="45.54305" lon="6.07177">
        <ele>989</ele>
        <time>2016-12-08T15:36:00+01:00</time>
      </trkpt>
      <trkpt lat="45.54322" lon="6.07178">
        <ele>989</ele>
        <time>2016-12-08T15:36:23+01:00</time>
      </trkpt>
      <trkpt lat="45.5434" lon="6.07182">
        <ele>988</ele>
        <time>2016-12-08T15:36:42+01:00</time>
      </trkpt>
      <trkpt lat="45.54352" lon="6.07184">
        <ele>986</ele>
        <time>2016-12-08T15:36:55+01:00</time>
      </trkpt>
      <trkpt lat="45.54363" lon="6.07188">
        <ele>984</ele>
        <time>2016-12-08T15:37:08+01:00</time>
      </trkpt>
      <trkpt lat="45.54376" lon="6.07192">
        <ele>983</ele>
        <time>2016-12-08T15:37:27+01:00</time>
      </trkpt>
      <trkpt lat="45.54395" lon="6.07203">
        <ele>983</ele>
        <time>2016-12-08T15:37:51+01:00</time>
      </trkpt>
      <trkpt lat="45.5441" lon="6.07212">
        <ele>984</ele>
        <time>2016-12-08T15:38:09+01:00</time>
      </trkpt>
      <trkpt lat="45.5442" lon="6.07225">
        <ele>987</ele>
        <time>2016-12-08T15:38:26+01:00</time>
      </trkpt>
      <trkpt lat="45.54438" lon="6.07241">
        <ele>986</ele>
        <time>2016-12-08T15:38:50+01:00</time>
      </trkpt>
      <trkpt lat="45.54447" lon="6.07251">
        <ele>987</ele>
        <time>2016-12-08T15:39:04+01:00</time>
      </trkpt>
      <trkpt lat="45.54462" lon="6.07264">
        <ele>985</ele>
        <time>2016-12-08T15:39:26+01:00</time>
      </trkpt>
      <trkpt lat="45.5448" lon="6.07275">
        <ele>984</ele>
        <time>2016-12-08T15:39:49+01:00</time>
      </trkpt>
      <trkpt lat="45.54498" lon="6.07292">
        <ele>985</ele>
        <time>2016-12-08T15:40:16+01:00</time>
      </trkpt>
      <trkpt lat="45.54514" lon="6.07304">
        <ele>983</ele>
        <time>2016-12-08T15:40:38+01:00</time>
      </trkpt>
      <trkpt lat="45.54527" lon="6.07308">
        <ele>978</ele>
        <time>2016-12-08T15:40:48+01:00</time>
      </trkpt>
      <trkpt lat="45.54543" lon="6.07317">
        <ele>974</ele>
        <time>2016-12-08T15:41:05+01:00</time>
      </trkpt>
      <trkpt lat="45.54557" lon="6.07329">
        <ele>973</ele>
        <time>2016-12-08T15:41:20+01:00</time>
      </trkpt>
      <trkpt lat="45.54577" lon="6.07344">
        <ele>971</ele>
        <time>2016-12-08T15:41:56+01:00</time>
      </trkpt>
      <trkpt lat="45.54596" lon="6.07362">
        <ele>967</ele>
        <time>2016-12-08T15:42:26+01:00</time>
      </trkpt>
      <trkpt lat="45.54612" lon="6.07374">
        <ele>962</ele>
        <time>2016-12-08T15:42:48+01:00</time>
      </trkpt>
      <trkpt lat="45.54628" lon="6.07385">
        <ele>957</ele>
        <time>2016-12-08T15:43:10+01:00</time>
      </trkpt>
      <trkpt lat="45.54639" lon="6.07395">
        <ele>955</ele>
        <time>2016-12-08T15:43:26+01:00</time>
      </trkpt>
      <trkpt lat="45.54652" lon="6.07416">
        <ele>957</ele>
        <time>2016-12-08T15:43:45+01:00</time>
      </trkpt>
      <trkpt lat="45.54668" lon="6.07426">
        <ele>952</ele>
        <time>2016-12-08T15:44:13+01:00</time>
      </trkpt>
      <trkpt lat="45.54684" lon="6.07441">
        <ele>951</ele>
        <time>2016-12-08T15:44:36+01:00</time>
      </trkpt>
      <trkpt lat="45.54711" lon="6.07463">
        <ele>948</ele>
        <time>2016-12-08T15:44:57+01:00</time>
      </trkpt>
      <trkpt lat="45.5472" lon="6.07471">
        <ele>948</ele>
        <time>2016-12-08T15:45:07+01:00</time>
      </trkpt>
      <trkpt lat="45.54738" lon="6.07483">
        <ele>945</ele>
        <time>2016-12-08T15:45:34+01:00</time>
      </trkpt>
      <trkpt lat="45.54754" lon="6.07487">
        <ele>941</ele>
        <time>2016-12-08T15:45:56+01:00</time>
      </trkpt>
      <trkpt lat="45.54771" lon="6.07496">
        <ele>943</ele>
        <time>2016-12-08T15:46:20+01:00</time>
      </trkpt>
      <trkpt lat="45.54789" lon="6.07496">
        <ele>941</ele>
        <time>2016-12-08T15:46:48+01:00</time>
      </trkpt>
      <trkpt lat="45.54798" lon="6.07496">
        <ele>940</ele>
        <time>2016-12-08T15:46:59+01:00</time>
      </trkpt>
      <trkpt lat="45.54815" lon="6.07498">
        <ele>938</ele>
        <time>2016-12-08T15:47:19+01:00</time>
      </trkpt>
      <trkpt lat="45.54834" lon="6.075">
        <ele>937</ele>
        <time>2016-12-08T15:47:36+01:00</time>
      </trkpt>
      <trkpt lat="45.54852" lon="6.075">
        <ele>936</ele>
        <time>2016-12-08T15:48:08+01:00</time>
      </trkpt>
      <trkpt lat="45.54876" lon="6.07502">
        <ele>934</ele>
        <time>2016-12-08T15:48:28+01:00</time>
      </trkpt>
      <trkpt lat="45.54897" lon="6.07511">
        <ele>934</ele>
        <time>2016-12-08T15:48:54+01:00</time>
      </trkpt>
      <trkpt lat="45.5491" lon="6.07517">
        <ele>934</ele>
        <time>2016-12-08T15:49:08+01:00</time>
      </trkpt>
      <trkpt lat="45.54922" lon="6.07527">
        <ele>934</ele>
        <time>2016-12-08T15:49:13+01:00</time>
      </trkpt>
      <trkpt lat="45.54937" lon="6.07528">
        <ele>934</ele>
        <time>2016-12-08T15:49:27+01:00</time>
      </trkpt>
      <trkpt lat="45.54954" lon="6.07538">
        <ele>936</ele>
        <time>2016-12-08T15:49:46+01:00</time>
      </trkpt>
      <trkpt lat="45.5497" lon="6.07554">
        <ele>939</ele>
        <time>2016-12-08T15:49:57+01:00</time>
      </trkpt>
      <trkpt lat="45.54987" lon="6.0756">
        <ele>940</ele>
        <time>2016-12-08T15:51:56+01:00</time>
      </trkpt>
    </trkseg>
  </trk>
</gpx>